Sentier — NP166Q — position and weather

sailwx.info

Track history (hours):
 
Tides and Currents Weather Stations Pressure Air Temp Water Temp Dewpoint Dewpoint Depression Visibility Wind Speed Wind Dir Waves Ship Positions

Sentier

Last reported at 2017-Nov-15 06:17 UTC. Time now 2017-Nov-21 12:19 UTC.
Position S 27°12' E 153°07'.

Length 11 m.

Type: Sailing vessel. MMSI: 503025130.

Date/timePositionNaut miles runAvg speedWind from/ knotsBaromVisibWave heightAir tempDewpointWater temp
2017-Nov-15 06:17S 27°12' E 153°07'0 1.8
2017-Nov-15 06:00S 27°11' E 153°06'3 5.6
2017-Nov-15 05:30S 27°09' E 153°04'2 4.2
2017-Nov-15 05:00S 27°08' E 153°06'2 4.6
2017-Nov-15 04:28S 27°11' E 153°06'1 1.2
2017-Nov-15 04:00S 27°11' E 153°06'0 0.8
2017-Nov-15 03:30S 27°11' E 153°06'1 1.3
2017-Nov-15 02:56S 27°12' E 153°07'0 0.0
2017-Nov-15 02:29S 27°12' E 153°07'0 0.0
2017-Nov-15 01:59S 27°12' E 153°07'0 0.0
2017-Nov-15 01:29S 27°12' E 153°07'0 0.0
2017-Nov-15 00:59S 27°12' E 153°07'  
2017-Nov-12 06:08S 27°12' E 153°07'0 0.0
2017-Nov-12 06:00S 27°12' E 153°07'0 0.0
2017-Nov-12 05:30S 27°12' E 153°07'0 0.8
2017-Nov-12 05:00S 27°12' E 153°06'2 3.8
2017-Nov-12 04:30S 27°11' E 153°08'3 0.7
2017-Nov-12 00:52S 27°14' E 153°09'3 7.3
2017-Nov-12 00:30S 27°11' E 153°09'2 3.3
2017-Nov-11 23:49S 27°11' E 153°06'1 0.0
2017-Nov-11 05:24S 27°12' E 153°06'3 3.3
2017-Nov-11 04:28S 27°09' E 153°05'1 2.8
2017-Nov-11 03:57S 27°09' E 153°07'  
2017-Nov-08 05:59S 27°12' E 153°07'1 1.1
2017-Nov-08 05:30S 27°11' E 153°06'2 4.7
2017-Nov-08 05:00S 27°11' E 153°04'4 8.2
2017-Nov-08 04:30S 27°08' E 153°07'3 6.4
2017-Nov-08 04:00S 27°11' E 153°06'0 0.9
2017-Nov-08 03:30S 27°12' E 153°06'0 0.5
2017-Nov-08 02:59S 27°12' E 153°07'0 0.0
2017-Nov-08 02:28S 27°12' E 153°07'0 0.0
2017-Nov-08 01:58S 27°12' E 153°07'0 0.0
2017-Nov-08 01:29S 27°12' E 153°07'  
Track history (hours):
 
Tides and Currents Weather Stations Pressure Air Temp Water Temp Dewpoint Dewpoint Depression Visibility Wind Speed Wind Dir Waves Ship Positions

Sentier

Last reported at 2017-Nov-15 06:17 UTC. Time now 2017-Nov-21 12:19 UTC.
Position S 27°12' E 153°07'.

Length 11 m.

Type: Sailing vessel. MMSI: 503025130.

Date/timePositionNaut miles runAvg speedWind from/ knotsBaromVisibWave heightAir tempDewpointWater temp
2017-Nov-15 06:17S 27°12' E 153°07'0 1.8
2017-Nov-15 06:00S 27°11' E 153°06'3 5.6
2017-Nov-15 05:30S 27°09' E 153°04'2 4.2
2017-Nov-15 05:00S 27°08' E 153°06'2 4.6
2017-Nov-15 04:28S 27°11' E 153°06'1 1.2
2017-Nov-15 04:00S 27°11' E 153°06'0 0.8
2017-Nov-15 03:30S 27°11' E 153°06'1 1.3
2017-Nov-15 02:56S 27°12' E 153°07'0 0.0
2017-Nov-15 02:29S 27°12' E 153°07'0 0.0
2017-Nov-15 01:59S 27°12' E 153°07'0 0.0
2017-Nov-15 01:29S 27°12' E 153°07'0 0.0
2017-Nov-15 00:59S 27°12' E 153°07'  
2017-Nov-12 06:08S 27°12' E 153°07'0 0.0
2017-Nov-12 06:00S 27°12' E 153°07'0 0.0
2017-Nov-12 05:30S 27°12' E 153°07'0 0.8
2017-Nov-12 05:00S 27°12' E 153°06'2 3.8
2017-Nov-12 04:30S 27°11' E 153°08'3 0.7
2017-Nov-12 00:52S 27°14' E 153°09'3 7.3
2017-Nov-12 00:30S 27°11' E 153°09'2 3.3
2017-Nov-11 23:49S 27°11' E 153°06'1 0.0
2017-Nov-11 05:24S 27°12' E 153°06'3 3.3
2017-Nov-11 04:28S 27°09' E 153°05'1 2.8
2017-Nov-11 03:57S 27°09' E 153°07'  
2017-Nov-08 05:59S 27°12' E 153°07'1 1.1
2017-Nov-08 05:30S 27°11' E 153°06'2 4.7
2017-Nov-08 05:00S 27°11' E 153°04'4 8.2
2017-Nov-08 04:30S 27°08' E 153°07'3 6.4
2017-Nov-08 04:00S 27°11' E 153°06'0 0.9
2017-Nov-08 03:30S 27°12' E 153°06'0 0.5
2017-Nov-08 02:59S 27°12' E 153°07'0 0.0
2017-Nov-08 02:28S 27°12' E 153°07'0 0.0
2017-Nov-08 01:58S 27°12' E 153°07'0 0.0
2017-Nov-08 01:29S 27°12' E 153°07'  

Dump ship's entire track history